الصفحة الرئيسية
METAR-TAF:

METAR-TAF

مطار :

وانجارتا, أستراليا

دائرة عرض: 36-24-57S, خط طول: 146-18-25E, ارتفاع: 154 متر

مراقبة الطقس الحالي

تاريخ ووقت الإصدار 1ساعة و 9 دقيقة قبل الساعة 11:00UTC
ريح 11 عقدة من الغرب/الجنوب الغربي
درجة الحرارة 20°درجة مئوية
الرطوبة 46%
ضغط 1012 hPa
الرؤية 10 كم أو أكثر

METAR: YWGT 111100Z AUTO 24011KT 9999 // NCD 20/08 Q1012

زمن: 23:09 (12:09 UTC)

توقعات

تاريخ ووقت الإصدار 11ساعات و 4 دقيقة قبل الساعة 01:05UTC
التوقعات صالحة من11 الساعة 02 UTC إلى 11 الساعة 14 UTC
ريح 8 عقدة من الغرب
الرؤية 10 كم أو أكثر
الغيوم لا تقل 1500 م ولا وجود لمزنة ركامية السحاب الأسود
من 11 الساعة 0500 UTC
ريح 14 عقدة من الجنوب الغربي
الرؤية 10 كم أو أكثر
الغيوم لا تقل 1500 م ولا وجود لمزنة ركامية السحاب الأسود
من 11 الساعة 1100 UTC
ريح 10 عقدة من الجنوب/الجنوب الغربي
الرؤية 10 كم أو أكثر
الغيوم لا تقل 1500 م ولا وجود لمزنة ركامية السحاب الأسود

TAF: YWGT 110105Z 1102/1114 26008KT CAVOK FM110500 23014KT CAVOK FM111100 20010KT CAVOK

أرصاد الطقس والتوقعات من أكثر من 4000 مطار (تقارير الطقس للمطار METAR والتنبؤ بالطقس بالمطارTAF).

المحطات المتاحة هي النقط الصفراء والحمراء على الخريطة.

حرك المؤشر فوق النقطة لمعرفة اسم المحطة.

ثم انقر لمعرفة أرصاد وتوقعات الطقس.

لتغيير الخارطة: اضغط على الأزرار الخضراء مع رمز الصليب الأسود للتكبير. على الزر الأخضر مع شرطة للتصغير، أو على الأسهم الخضراء للخرائط المجاورة.


METAR-TAF: